sensor_id;sensor_type;location;lat;lon;timestamp;temperature;humidity
53208;DHT22;39093;52.788;6.940;2023-07-24T00:02:14;17.80;99.90
53208;DHT22;39093;52.788;6.940;2023-07-24T00:04:44;17.80;99.90
53208;DHT22;39093;52.788;6.940;2023-07-24T00:07:11;17.80;99.90
53208;DHT22;39093;52.788;6.940;2023-07-24T00:09:38;17.70;99.90
53208;DHT22;39093;52.788;6.940;2023-07-24T00:12:05;17.60;99.90
53208;DHT22;39093;52.788;6.940;2023-07-24T00:14:32;17.60;99.90
53208;DHT22;39093;52.788;6.940;2023-07-24T00:16:59;17.60;99.90
53208;DHT22;39093;52.788;6.940;2023-07-24T00:19:26;17.60;99.90
53208;DHT22;39093;52.788;6.940;2023-07-24T00:21:53;17.50;99.90
53208;DHT22;39093;52.788;6.940;2023-07-24T00:24:22;17.40;99.90
53208;DHT22;39093;52.788;6.940;2023-07-24T00:26:49;17.40;99.90
53208;DHT22;39093;52.788;6.940;2023-07-24T00:29:16;17.40;99.90
53208;DHT22;39093;52.788;6.940;2023-07-24T00:31:43;17.40;99.90
53208;DHT22;39093;52.788;6.940;2023-07-24T00:34:10;17.40;99.90
53208;DHT22;39093;52.788;6.940;2023-07-24T00:36:37;17.40;99.90
53208;DHT22;39093;52.788;6.940;2023-07-24T00:39:05;17.40;99.90
53208;DHT22;39093;52.788;6.940;2023-07-24T00:41:32;17.30;99.90
53208;DHT22;39093;52.788;6.940;2023-07-24T00:43:59;17.30;99.90
53208;DHT22;39093;52.788;6.940;2023-07-24T00:46:26;17.30;99.90
53208;DHT22;39093;52.788;6.940;2023-07-24T00:48:54;17.30;99.90
53208;DHT22;39093;52.788;6.940;2023-07-24T00:51:21;17.20;99.90
53208;DHT22;39093;52.788;6.940;2023-07-24T00:53:47;17.20;99.90
53208;DHT22;39093;52.788;6.940;2023-07-24T00:56:14;17.20;99.90
53208;DHT22;39093;52.788;6.940;2023-07-24T00:58:41;17.20;99.90
53208;DHT22;39093;52.788;6.940;2023-07-24T01:01:10;17.10;99.90
53208;DHT22;39093;52.788;6.940;2023-07-24T01:03:38;17.10;99.90
53208;DHT22;39093;52.788;6.940;2023-07-24T01:06:06;17.20;99.90
53208;DHT22;39093;52.788;6.940;2023-07-24T01:08:33;17.10;99.90
53208;DHT22;39093;52.788;6.940;2023-07-24T01:11:06;17.10;99.90
53208;DHT22;39093;52.788;6.940;2023-07-24T01:13:40;17.10;99.90
53208;DHT22;39093;52.788;6.940;2023-07-24T01:16:18;17.00;99.90
53208;DHT22;39093;52.788;6.940;2023-07-24T01:18:46;17.00;99.90
53208;DHT22;39093;52.788;6.940;2023-07-24T01:21:15;17.00;99.90
53208;DHT22;39093;52.788;6.940;2023-07-24T01:23:55;17.00;99.90
53208;DHT22;39093;52.788;6.940;2023-07-24T01:26:23;17.00;99.90
53208;DHT22;39093;52.788;6.940;2023-07-24T01:28:51;17.00;99.90
53208;DHT22;39093;52.788;6.940;2023-07-24T01:31:18;16.90;99.90
53208;DHT22;39093;52.788;6.940;2023-07-24T01:33:45;16.90;99.90
53208;DHT22;39093;52.788;6.940;2023-07-24T01:36:13;16.90;99.90
53208;DHT22;39093;52.788;6.940;2023-07-24T01:38:41;16.90;99.90
53208;DHT22;39093;52.788;6.940;2023-07-24T01:41:09;16.80;99.90
53208;DHT22;39093;52.788;6.940;2023-07-24T01:43:36;16.80;99.90
53208;DHT22;39093;52.788;6.940;2023-07-24T01:46:03;16.80;99.90
53208;DHT22;39093;52.788;6.940;2023-07-24T01:48:31;16.70;99.90
53208;DHT22;39093;52.788;6.940;2023-07-24T01:50:58;16.80;99.90
53208;DHT22;39093;52.788;6.940;2023-07-24T01:53:25;16.70;99.90
53208;DHT22;39093;52.788;6.940;2023-07-24T01:55:52;16.70;99.90
53208;DHT22;39093;52.788;6.940;2023-07-24T01:58:19;16.70;99.90
53208;DHT22;39093;52.788;6.940;2023-07-24T02:00:46;16.70;99.90
53208;DHT22;39093;52.788;6.940;2023-07-24T02:03:13;16.70;99.90
53208;DHT22;39093;52.788;6.940;2023-07-24T02:05:41;16.70;99.90
53208;DHT22;39093;52.788;6.940;2023-07-24T02:08:08;16.70;99.90
53208;DHT22;39093;52.788;6.940;2023-07-24T02:10:37;16.60;99.90
53208;DHT22;39093;52.788;6.940;2023-07-24T02:13:04;16.60;99.90
53208;DHT22;39093;52.788;6.940;2023-07-24T02:15:34;16.60;99.90
53208;DHT22;39093;52.788;6.940;2023-07-24T02:18:01;16.60;99.90
53208;DHT22;39093;52.788;6.940;2023-07-24T02:20:28;16.60;99.90
53208;DHT22;39093;52.788;6.940;2023-07-24T02:22:55;16.60;99.90
53208;DHT22;39093;52.788;6.940;2023-07-24T02:25:22;16.60;99.90
53208;DHT22;39093;52.788;6.940;2023-07-24T02:27:51;16.60;99.90
53208;DHT22;39093;52.788;6.940;2023-07-24T02:30:18;16.60;99.90
53208;DHT22;39093;52.788;6.940;2023-07-24T02:32:45;16.50;99.90
53208;DHT22;39093;52.788;6.940;2023-07-24T02:35:12;16.60;99.90
53208;DHT22;39093;52.788;6.940;2023-07-24T02:37:38;16.60;99.90
53208;DHT22;39093;52.788;6.940;2023-07-24T02:40:06;16.60;99.90
53208;DHT22;39093;52.788;6.940;2023-07-24T02:42:33;16.60;99.90
53208;DHT22;39093;52.788;6.940;2023-07-24T02:45:00;16.60;99.90
53208;DHT22;39093;52.788;6.940;2023-07-24T02:47:27;16.60;99.90
53208;DHT22;39093;52.788;6.940;2023-07-24T02:49:54;16.60;99.90
53208;DHT22;39093;52.788;6.940;2023-07-24T02:52:22;16.70;99.90
53208;DHT22;39093;52.788;6.940;2023-07-24T02:54:49;16.60;99.90
53208;DHT22;39093;52.788;6.940;2023-07-24T02:57:16;16.60;99.90
53208;DHT22;39093;52.788;6.940;2023-07-24T02:59:43;16.60;99.90
53208;DHT22;39093;52.788;6.940;2023-07-24T03:02:10;16.70;99.90
53208;DHT22;39093;52.788;6.940;2023-07-24T03:04:37;16.70;99.90
53208;DHT22;39093;52.788;6.940;2023-07-24T03:07:04;16.70;99.90
53208;DHT22;39093;52.788;6.940;2023-07-24T03:09:30;16.70;99.90
53208;DHT22;39093;52.788;6.940;2023-07-24T03:11:57;16.80;99.90
53208;DHT22;39093;52.788;6.940;2023-07-24T03:14:24;16.80;99.90
53208;DHT22;39093;52.788;6.940;2023-07-24T03:16:52;16.80;99.90
53208;DHT22;39093;52.788;6.940;2023-07-24T03:19:19;16.80;99.90
53208;DHT22;39093;52.788;6.940;2023-07-24T03:21:47;16.80;99.90
53208;DHT22;39093;52.788;6.940;2023-07-24T03:24:14;16.80;99.90
53208;DHT22;39093;52.788;6.940;2023-07-24T03:26:41;16.80;99.90
53208;DHT22;39093;52.788;6.940;2023-07-24T03:29:10;16.80;99.90
53208;DHT22;39093;52.788;6.940;2023-07-24T03:31:37;16.80;99.90
53208;DHT22;39093;52.788;6.940;2023-07-24T03:34:04;16.80;99.90
53208;DHT22;39093;52.788;6.940;2023-07-24T03:36:31;16.80;99.90
53208;DHT22;39093;52.788;6.940;2023-07-24T03:38:58;16.90;99.90
53208;DHT22;39093;52.788;6.940;2023-07-24T03:41:25;16.80;99.90
53208;DHT22;39093;52.788;6.940;2023-07-24T03:43:52;16.90;99.90
53208;DHT22;39093;52.788;6.940;2023-07-24T03:46:19;16.90;99.90
53208;DHT22;39093;52.788;6.940;2023-07-24T03:48:46;16.80;99.90
53208;DHT22;39093;52.788;6.940;2023-07-24T03:51:12;16.80;99.90
53208;DHT22;39093;52.788;6.940;2023-07-24T03:53:40;16.80;99.90
53208;DHT22;39093;52.788;6.940;2023-07-24T03:56:07;16.80;99.90
53208;DHT22;39093;52.788;6.940;2023-07-24T03:58:34;16.80;99.90
53208;DHT22;39093;52.788;6.940;2023-07-24T04:01:01;16.80;99.90
53208;DHT22;39093;52.788;6.940;2023-07-24T04:03:28;16.80;99.90
53208;DHT22;39093;52.788;6.940;2023-07-24T04:05:59;16.80;99.90
53208;DHT22;39093;52.788;6.940;2023-07-24T04:08:26;16.80;99.90
53208;DHT22;39093;52.788;6.940;2023-07-24T04:10:53;16.80;99.90
53208;DHT22;39093;52.788;6.940;2023-07-24T04:13:22;16.80;99.90
53208;DHT22;39093;52.788;6.940;2023-07-24T04:15:49;16.80;99.90
53208;DHT22;39093;52.788;6.940;2023-07-24T04:18:17;16.80;99.90
53208;DHT22;39093;52.788;6.940;2023-07-24T04:20:44;16.80;99.90
53208;DHT22;39093;52.788;6.940;2023-07-24T04:23:10;16.80;99.90
53208;DHT22;39093;52.788;6.940;2023-07-24T04:25:37;16.80;99.90
53208;DHT22;39093;52.788;6.940;2023-07-24T04:28:04;16.80;99.90
53208;DHT22;39093;52.788;6.940;2023-07-24T04:30:32;16.80;99.90
53208;DHT22;39093;52.788;6.940;2023-07-24T04:32:59;16.90;99.90
53208;DHT22;39093;52.788;6.940;2023-07-24T04:35:27;16.80;99.90
53208;DHT22;39093;52.788;6.940;2023-07-24T04:37:54;16.80;99.90
53208;DHT22;39093;52.788;6.940;2023-07-24T04:40:21;16.80;99.90
53208;DHT22;39093;52.788;6.940;2023-07-24T04:42:48;16.80;99.90
53208;DHT22;39093;52.788;6.940;2023-07-24T04:45:14;16.70;99.90
53208;DHT22;39093;52.788;6.940;2023-07-24T04:47:41;16.70;99.90
53208;DHT22;39093;52.788;6.940;2023-07-24T04:50:09;16.80;99.90
53208;DHT22;39093;52.788;6.940;2023-07-24T04:52:35;16.70;99.90
53208;DHT22;39093;52.788;6.940;2023-07-24T04:55:03;16.70;99.90
53208;DHT22;39093;52.788;6.940;2023-07-24T04:57:30;16.70;99.90
53208;DHT22;39093;52.788;6.940;2023-07-24T04:59:57;16.70;99.90
53208;DHT22;39093;52.788;6.940;2023-07-24T05:02:24;16.70;99.90
53208;DHT22;39093;52.788;6.940;2023-07-24T05:04:51;16.70;99.90
53208;DHT22;39093;52.788;6.940;2023-07-24T05:07:18;16.70;99.90
53208;DHT22;39093;52.788;6.940;2023-07-24T05:09:45;16.70;99.90
53208;DHT22;39093;52.788;6.940;2023-07-24T05:12:12;16.60;99.90
53208;DHT22;39093;52.788;6.940;2023-07-24T05:14:38;16.70;99.90
53208;DHT22;39093;52.788;6.940;2023-07-24T05:17:05;16.60;99.90
53208;DHT22;39093;52.788;6.940;2023-07-24T05:19:32;16.70;99.90
53208;DHT22;39093;52.788;6.940;2023-07-24T05:21:59;16.70;99.90
53208;DHT22;39093;52.788;6.940;2023-07-24T05:24:26;16.70;99.90
53208;DHT22;39093;52.788;6.940;2023-07-24T05:26:53;16.70;99.90
53208;DHT22;39093;52.788;6.940;2023-07-24T05:29:20;16.70;99.90
53208;DHT22;39093;52.788;6.940;2023-07-24T05:31:47;16.70;99.90
53208;DHT22;39093;52.788;6.940;2023-07-24T05:34:14;16.70;99.90
53208;DHT22;39093;52.788;6.940;2023-07-24T05:36:41;16.70;99.90
53208;DHT22;39093;52.788;6.940;2023-07-24T05:39:09;16.70;99.90
53208;DHT22;39093;52.788;6.940;2023-07-24T05:41:36;16.70;99.90
53208;DHT22;39093;52.788;6.940;2023-07-24T05:44:06;16.70;99.90
53208;DHT22;39093;52.788;6.940;2023-07-24T05:46:33;16.70;99.90
53208;DHT22;39093;52.788;6.940;2023-07-24T05:49:00;16.70;99.90
53208;DHT22;39093;52.788;6.940;2023-07-24T05:51:28;16.80;99.90
53208;DHT22;39093;52.788;6.940;2023-07-24T05:53:55;16.80;99.90
53208;DHT22;39093;52.788;6.940;2023-07-24T05:56:25;16.80;99.90
53208;DHT22;39093;52.788;6.940;2023-07-24T05:58:52;16.80;99.90
53208;DHT22;39093;52.788;6.940;2023-07-24T06:01:19;16.90;99.90
53208;DHT22;39093;52.788;6.940;2023-07-24T06:03:46;16.90;99.90
53208;DHT22;39093;52.788;6.940;2023-07-24T06:06:13;17.00;99.90
53208;DHT22;39093;52.788;6.940;2023-07-24T06:08:43;17.00;99.90
53208;DHT22;39093;52.788;6.940;2023-07-24T06:11:13;17.10;99.90
53208;DHT22;39093;52.788;6.940;2023-07-24T06:13:40;17.10;99.90
53208;DHT22;39093;52.788;6.940;2023-07-24T06:16:07;17.10;99.90
53208;DHT22;39093;52.788;6.940;2023-07-24T06:18:34;17.20;99.90
53208;DHT22;39093;52.788;6.940;2023-07-24T06:21:01;17.20;99.90
53208;DHT22;39093;52.788;6.940;2023-07-24T06:23:29;17.20;99.90
53208;DHT22;39093;52.788;6.940;2023-07-24T06:25:58;17.20;99.90
53208;DHT22;39093;52.788;6.940;2023-07-24T06:28:32;17.20;99.90
53208;DHT22;39093;52.788;6.940;2023-07-24T06:31:00;17.20;99.90
53208;DHT22;39093;52.788;6.940;2023-07-24T06:33:27;17.20;99.90
53208;DHT22;39093;52.788;6.940;2023-07-24T06:35:55;17.20;99.90
53208;DHT22;39093;52.788;6.940;2023-07-24T06:38:22;17.30;99.90
53208;DHT22;39093;52.788;6.940;2023-07-24T06:40:49;17.40;99.90
53208;DHT22;39093;52.788;6.940;2023-07-24T06:43:16;17.40;99.90
53208;DHT22;39093;52.788;6.940;2023-07-24T06:45:43;17.50;99.90
53208;DHT22;39093;52.788;6.940;2023-07-24T06:48:10;17.50;99.90
53208;DHT22;39093;52.788;6.940;2023-07-24T06:50:37;17.60;99.90
53208;DHT22;39093;52.788;6.940;2023-07-24T06:53:04;17.80;99.90
53208;DHT22;39093;52.788;6.940;2023-07-24T06:55:34;17.90;99.90
53208;DHT22;39093;52.788;6.940;2023-07-24T06:58:01;18.10;99.90
53208;DHT22;39093;52.788;6.940;2023-07-24T07:00:28;18.20;99.90
53208;DHT22;39093;52.788;6.940;2023-07-24T07:02:55;18.20;99.90
53208;DHT22;39093;52.788;6.940;2023-07-24T07:05:22;18.20;99.90
53208;DHT22;39093;52.788;6.940;2023-07-24T07:07:52;18.30;99.90
53208;DHT22;39093;52.788;6.940;2023-07-24T07:10:19;18.30;99.90
53208;DHT22;39093;52.788;6.940;2023-07-24T07:12:45;18.20;99.90
53208;DHT22;39093;52.788;6.940;2023-07-24T07:15:12;18.20;99.90
53208;DHT22;39093;52.788;6.940;2023-07-24T07:17:39;18.20;99.90
53208;DHT22;39093;52.788;6.940;2023-07-24T07:20:07;18.10;99.90
53208;DHT22;39093;52.788;6.940;2023-07-24T07:22:34;18.10;99.90
53208;DHT22;39093;52.788;6.940;2023-07-24T07:25:01;18.00;99.90
53208;DHT22;39093;52.788;6.940;2023-07-24T07:27:28;18.10;99.90
53208;DHT22;39093;52.788;6.940;2023-07-24T07:29:55;18.20;99.90
53208;DHT22;39093;52.788;6.940;2023-07-24T07:32:22;18.30;99.90
53208;DHT22;39093;52.788;6.940;2023-07-24T07:34:49;18.20;99.90
53208;DHT22;39093;52.788;6.940;2023-07-24T07:37:16;18.20;99.90
53208;DHT22;39093;52.788;6.940;2023-07-24T07:39:43;18.20;99.90
53208;DHT22;39093;52.788;6.940;2023-07-24T07:42:11;18.30;99.90
53208;DHT22;39093;52.788;6.940;2023-07-24T07:44:45;18.40;99.90
53208;DHT22;39093;52.788;6.940;2023-07-24T07:47:12;18.50;99.90
53208;DHT22;39093;52.788;6.940;2023-07-24T07:49:39;18.50;99.90
53208;DHT22;39093;52.788;6.940;2023-07-24T07:52:07;18.50;99.90
53208;DHT22;39093;52.788;6.940;2023-07-24T07:54:34;18.70;99.90
53208;DHT22;39093;52.788;6.940;2023-07-24T07:57:01;18.80;99.90
53208;DHT22;39093;52.788;6.940;2023-07-24T07:59:28;19.00;99.90
53208;DHT22;39093;52.788;6.940;2023-07-24T08:01:56;19.10;99.90
53208;DHT22;39093;52.788;6.940;2023-07-24T08:04:23;19.30;99.90
53208;DHT22;39093;52.788;6.940;2023-07-24T08:06:50;19.40;99.90
53208;DHT22;39093;52.788;6.940;2023-07-24T08:09:17;19.50;99.90
53208;DHT22;39093;52.788;6.940;2023-07-24T08:11:44;19.60;99.90
53208;DHT22;39093;52.788;6.940;2023-07-24T08:14:11;19.60;99.90
53208;DHT22;39093;52.788;6.940;2023-07-24T08:16:38;19.60;99.90
53208;DHT22;39093;52.788;6.940;2023-07-24T08:19:05;19.70;99.90
53208;DHT22;39093;52.788;6.940;2023-07-24T08:21:35;19.70;99.90
53208;DHT22;39093;52.788;6.940;2023-07-24T08:24:03;19.70;99.90
53208;DHT22;39093;52.788;6.940;2023-07-24T08:26:32;19.60;99.90
53208;DHT22;39093;52.788;6.940;2023-07-24T08:28:59;19.60;99.90
53208;DHT22;39093;52.788;6.940;2023-07-24T08:31:26;19.70;99.90
53208;DHT22;39093;52.788;6.940;2023-07-24T08:33:53;19.90;99.90
53208;DHT22;39093;52.788;6.940;2023-07-24T08:36:21;20.00;99.90
53208;DHT22;39093;52.788;6.940;2023-07-24T08:38:47;20.10;99.90
53208;DHT22;39093;52.788;6.940;2023-07-24T08:41:15;20.20;99.90
53208;DHT22;39093;52.788;6.940;2023-07-24T08:43:42;20.40;99.90
53208;DHT22;39093;52.788;6.940;2023-07-24T08:46:10;20.50;99.90
53208;DHT22;39093;52.788;6.940;2023-07-24T08:48:41;20.70;99.90
53208;DHT22;39093;52.788;6.940;2023-07-24T08:51:11;20.90;99.90
53208;DHT22;39093;52.788;6.940;2023-07-24T08:53:40;20.90;99.90
53208;DHT22;39093;52.788;6.940;2023-07-24T08:56:09;20.80;99.90
53208;DHT22;39093;52.788;6.940;2023-07-24T08:58:36;20.70;99.90
53208;DHT22;39093;52.788;6.940;2023-07-24T09:01:04;20.70;99.90
53208;DHT22;39093;52.788;6.940;2023-07-24T09:03:32;20.50;99.90
53208;DHT22;39093;52.788;6.940;2023-07-24T09:06:04;20.40;99.90
53208;DHT22;39093;52.788;6.940;2023-07-24T09:08:41;20.30;99.90
53208;DHT22;39093;52.788;6.940;2023-07-24T09:11:10;20.30;99.90
53208;DHT22;39093;52.788;6.940;2023-07-24T09:13:40;20.30;99.90
53208;DHT22;39093;52.788;6.940;2023-07-24T09:16:08;20.40;99.90
53208;DHT22;39093;52.788;6.940;2023-07-24T09:18:40;20.60;99.90
53208;DHT22;39093;52.788;6.940;2023-07-24T09:21:07;20.80;99.90
53208;DHT22;39093;52.788;6.940;2023-07-24T09:23:34;20.80;99.90
53208;DHT22;39093;52.788;6.940;2023-07-24T09:26:06;20.80;99.90
53208;DHT22;39093;52.788;6.940;2023-07-24T09:28:34;20.70;99.90
53208;DHT22;39093;52.788;6.940;2023-07-24T09:31:03;20.50;99.90
53208;DHT22;39093;52.788;6.940;2023-07-24T09:33:39;20.50;99.90
53208;DHT22;39093;52.788;6.940;2023-07-24T09:36:10;20.60;99.90
53208;DHT22;39093;52.788;6.940;2023-07-24T09:38:38;20.60;99.90
53208;DHT22;39093;52.788;6.940;2023-07-24T09:41:06;20.60;99.90
53208;DHT22;39093;52.788;6.940;2023-07-24T09:43:33;20.80;99.90
53208;DHT22;39093;52.788;6.940;2023-07-24T09:46:06;20.90;99.90
53208;DHT22;39093;52.788;6.940;2023-07-24T09:48:34;21.00;99.90
53208;DHT22;39093;52.788;6.940;2023-07-24T09:51:11;21.10;99.90
53208;DHT22;39093;52.788;6.940;2023-07-24T09:54:01;21.20;99.90
53208;DHT22;39093;52.788;6.940;2023-07-24T09:56:30;21.50;99.90
53208;DHT22;39093;52.788;6.940;2023-07-24T09:59:15;21.60;99.90
53208;DHT22;39093;52.788;6.940;2023-07-24T10:01:43;21.70;99.90
53208;DHT22;39093;52.788;6.940;2023-07-24T10:04:11;21.70;99.90
53208;DHT22;39093;52.788;6.940;2023-07-24T10:06:38;21.70;99.90
53208;DHT22;39093;52.788;6.940;2023-07-24T10:09:06;21.60;99.90
53208;DHT22;39093;52.788;6.940;2023-07-24T10:11:34;21.50;99.90
53208;DHT22;39093;52.788;6.940;2023-07-24T10:14:01;21.50;99.90
53208;DHT22;39093;52.788;6.940;2023-07-24T10:16:28;21.60;99.90
53208;DHT22;39093;52.788;6.940;2023-07-24T10:18:56;21.80;99.90
53208;DHT22;39093;52.788;6.940;2023-07-24T10:21:27;21.80;99.90
53208;DHT22;39093;52.788;6.940;2023-07-24T10:23:59;21.70;99.90
53208;DHT22;39093;52.788;6.940;2023-07-24T10:26:26;21.80;99.90
53208;DHT22;39093;52.788;6.940;2023-07-24T10:28:54;21.90;99.90
53208;DHT22;39093;52.788;6.940;2023-07-24T10:31:25;22.10;99.90
53208;DHT22;39093;52.788;6.940;2023-07-24T10:34:04;22.30;99.90
53208;DHT22;39093;52.788;6.940;2023-07-24T10:36:36;22.00;99.90
53208;DHT22;39093;52.788;6.940;2023-07-24T10:39:13;22.00;99.90
53208;DHT22;39093;52.788;6.940;2023-07-24T10:41:40;22.10;99.90
53208;DHT22;39093;52.788;6.940;2023-07-24T10:44:07;22.20;99.90
53208;DHT22;39093;52.788;6.940;2023-07-24T10:46:39;22.30;99.90
53208;DHT22;39093;52.788;6.940;2023-07-24T10:49:09;22.40;99.90
53208;DHT22;39093;52.788;6.940;2023-07-24T10:51:36;22.40;99.90
53208;DHT22;39093;52.788;6.940;2023-07-24T10:54:08;22.60;99.90
53208;DHT22;39093;52.788;6.940;2023-07-24T10:56:36;22.70;99.90
53208;DHT22;39093;52.788;6.940;2023-07-24T10:59:06;23.00;99.90
53208;DHT22;39093;52.788;6.940;2023-07-24T11:01:33;23.20;99.90
53208;DHT22;39093;52.788;6.940;2023-07-24T11:04:02;23.40;99.90
53208;DHT22;39093;52.788;6.940;2023-07-24T11:06:29;23.40;99.90
53208;DHT22;39093;52.788;6.940;2023-07-24T11:08:58;23.50;99.90
53208;DHT22;39093;52.788;6.940;2023-07-24T11:11:44;23.50;99.90
53208;DHT22;39093;52.788;6.940;2023-07-24T11:14:13;23.70;99.90
53208;DHT22;39093;52.788;6.940;2023-07-24T11:16:50;24.00;99.90
53208;DHT22;39093;52.788;6.940;2023-07-24T11:19:24;24.20;99.90
53208;DHT22;39093;52.788;6.940;2023-07-24T11:21:51;24.50;99.90
53208;DHT22;39093;52.788;6.940;2023-07-24T11:24:18;24.60;99.90
53208;DHT22;39093;52.788;6.940;2023-07-24T11:26:45;24.70;99.90
53208;DHT22;39093;52.788;6.940;2023-07-24T11:29:12;24.70;99.90
53208;DHT22;39093;52.788;6.940;2023-07-24T11:31:39;24.70;99.90
53208;DHT22;39093;52.788;6.940;2023-07-24T11:34:07;24.60;99.90
53208;DHT22;39093;52.788;6.940;2023-07-24T11:36:34;24.40;99.90
53208;DHT22;39093;52.788;6.940;2023-07-24T11:39:01;24.40;99.90
53208;DHT22;39093;52.788;6.940;2023-07-24T11:41:31;24.20;99.90
53208;DHT22;39093;52.788;6.940;2023-07-24T11:43:59;23.90;99.90
53208;DHT22;39093;52.788;6.940;2023-07-24T11:46:28;23.80;99.90
53208;DHT22;39093;52.788;6.940;2023-07-24T11:48:56;23.70;99.90
53208;DHT22;39093;52.788;6.940;2023-07-24T11:51:25;23.50;99.90
53208;DHT22;39093;52.788;6.940;2023-07-24T11:54:09;23.40;99.90
53208;DHT22;39093;52.788;6.940;2023-07-24T11:56:38;23.50;99.90
53208;DHT22;39093;52.788;6.940;2023-07-24T11:59:12;23.50;99.90
53208;DHT22;39093;52.788;6.940;2023-07-24T12:01:40;23.20;99.90
53208;DHT22;39093;52.788;6.940;2023-07-24T12:04:07;23.30;99.90
53208;DHT22;39093;52.788;6.940;2023-07-24T12:06:37;23.30;99.90
53208;DHT22;39093;52.788;6.940;2023-07-24T12:09:04;23.40;99.90
53208;DHT22;39093;52.788;6.940;2023-07-24T12:11:32;23.40;99.90
53208;DHT22;39093;52.788;6.940;2023-07-24T12:13:59;23.40;99.90
53208;DHT22;39093;52.788;6.940;2023-07-24T12:16:28;23.20;99.90
53208;DHT22;39093;52.788;6.940;2023-07-24T12:18:55;23.20;99.90
53208;DHT22;39093;52.788;6.940;2023-07-24T12:21:22;23.10;99.90
53208;DHT22;39093;52.788;6.940;2023-07-24T12:23:49;23.20;99.90
53208;DHT22;39093;52.788;6.940;2023-07-24T12:26:16;23.20;99.90
53208;DHT22;39093;52.788;6.940;2023-07-24T12:28:43;23.30;99.90
53208;DHT22;39093;52.788;6.940;2023-07-24T12:31:10;23.30;99.90
53208;DHT22;39093;52.788;6.940;2023-07-24T12:33:37;23.20;99.90
53208;DHT22;39093;52.788;6.940;2023-07-24T12:36:04;23.40;99.90
53208;DHT22;39093;52.788;6.940;2023-07-24T12:38:31;23.60;99.90
53208;DHT22;39093;52.788;6.940;2023-07-24T12:40:58;23.80;99.90
53208;DHT22;39093;52.788;6.940;2023-07-24T12:43:25;23.90;99.90
53208;DHT22;39093;52.788;6.940;2023-07-24T12:45:52;23.80;99.90
53208;DHT22;39093;52.788;6.940;2023-07-24T12:48:19;23.70;99.90
53208;DHT22;39093;52.788;6.940;2023-07-24T12:50:46;23.70;99.90
53208;DHT22;39093;52.788;6.940;2023-07-24T12:53:13;23.80;99.90
53208;DHT22;39093;52.788;6.940;2023-07-24T12:55:46;24.00;99.90
53208;DHT22;39093;52.788;6.940;2023-07-24T12:58:15;24.20;99.90
53208;DHT22;39093;52.788;6.940;2023-07-24T13:00:54;24.50;99.90
53208;DHT22;39093;52.788;6.940;2023-07-24T13:03:21;24.70;99.90
53208;DHT22;39093;52.788;6.940;2023-07-24T13:05:49;25.00;99.90
53208;DHT22;39093;52.788;6.940;2023-07-24T13:08:15;25.30;99.90
53208;DHT22;39093;52.788;6.940;2023-07-24T13:10:45;25.50;99.90
53208;DHT22;39093;52.788;6.940;2023-07-24T13:13:12;25.50;99.90
53208;DHT22;39093;52.788;6.940;2023-07-24T13:15:39;25.40;99.40
53208;DHT22;39093;52.788;6.940;2023-07-24T13:18:06;25.50;98.40
53208;DHT22;39093;52.788;6.940;2023-07-24T13:20:53;25.50;99.70
53208;DHT22;39093;52.788;6.940;2023-07-24T13:23:27;25.30;99.90
53208;DHT22;39093;52.788;6.940;2023-07-24T13:25:54;25.20;99.90
53208;DHT22;39093;52.788;6.940;2023-07-24T13:28:25;25.10;99.90
53208;DHT22;39093;52.788;6.940;2023-07-24T13:30:52;25.40;99.90
53208;DHT22;39093;52.788;6.940;2023-07-24T13:33:19;25.80;99.90
53208;DHT22;39093;52.788;6.940;2023-07-24T13:35:48;26.10;98.40
53208;DHT22;39093;52.788;6.940;2023-07-24T13:38:16;25.90;98.80
53208;DHT22;39093;52.788;6.940;2023-07-24T13:40:47;25.70;99.90
53208;DHT22;39093;52.788;6.940;2023-07-24T13:43:14;25.80;99.90
53208;DHT22;39093;52.788;6.940;2023-07-24T13:45:42;26.10;99.90
53208;DHT22;39093;52.788;6.940;2023-07-24T13:48:08;26.50;98.80
53208;DHT22;39093;52.788;6.940;2023-07-24T13:50:39;26.60;97.90
53208;DHT22;39093;52.788;6.940;2023-07-24T13:53:06;26.50;96.00
53208;DHT22;39093;52.788;6.940;2023-07-24T13:55:33;25.90;97.20
53208;DHT22;39093;52.788;6.940;2023-07-24T13:58:00;25.30;98.00
53208;DHT22;39093;52.788;6.940;2023-07-24T14:00:28;25.00;97.10
53208;DHT22;39093;52.788;6.940;2023-07-24T14:02:55;24.40;98.30
53208;DHT22;39093;52.788;6.940;2023-07-24T14:05:22;23.80;99.50
53208;DHT22;39093;52.788;6.940;2023-07-24T14:07:49;23.30;99.90
53208;DHT22;39093;52.788;6.940;2023-07-24T14:10:19;22.90;99.90
53208;DHT22;39093;52.788;6.940;2023-07-24T14:12:46;22.50;99.90
53208;DHT22;39093;52.788;6.940;2023-07-24T14:15:16;22.20;99.90
53208;DHT22;39093;52.788;6.940;2023-07-24T14:17:43;22.00;99.90
53208;DHT22;39093;52.788;6.940;2023-07-24T14:20:10;21.60;99.90
53208;DHT22;39093;52.788;6.940;2023-07-24T14:22:37;21.30;99.90
53208;DHT22;39093;52.788;6.940;2023-07-24T14:25:07;21.00;99.90
53208;DHT22;39093;52.788;6.940;2023-07-24T14:27:34;20.80;99.90
53208;DHT22;39093;52.788;6.940;2023-07-24T14:30:05;20.60;99.90
53208;DHT22;39093;52.788;6.940;2023-07-24T14:32:32;20.50;99.90
53208;DHT22;39093;52.788;6.940;2023-07-24T14:34:59;20.40;99.90
53208;DHT22;39093;52.788;6.940;2023-07-24T14:37:26;20.20;99.90
53208;DHT22;39093;52.788;6.940;2023-07-24T14:39:53;20.10;99.90
53208;DHT22;39093;52.788;6.940;2023-07-24T14:42:23;20.00;99.90
53208;DHT22;39093;52.788;6.940;2023-07-24T14:44:53;20.00;99.90
53208;DHT22;39093;52.788;6.940;2023-07-24T14:47:26;19.90;99.90
53208;DHT22;39093;52.788;6.940;2023-07-24T14:49:53;19.90;99.90
53208;DHT22;39093;52.788;6.940;2023-07-24T14:52:20;19.80;99.90
53208;DHT22;39093;52.788;6.940;2023-07-24T14:54:48;19.80;99.90
53208;DHT22;39093;52.788;6.940;2023-07-24T14:57:18;19.70;99.90
53208;DHT22;39093;52.788;6.940;2023-07-24T14:59:52;19.80;99.90
53208;DHT22;39093;52.788;6.940;2023-07-24T15:02:19;19.60;99.90
53208;DHT22;39093;52.788;6.940;2023-07-24T15:04:47;19.60;99.90
53208;DHT22;39093;52.788;6.940;2023-07-24T15:07:17;19.70;99.90
53208;DHT22;39093;52.788;6.940;2023-07-24T15:09:44;19.70;99.90
53208;DHT22;39093;52.788;6.940;2023-07-24T15:12:11;19.70;99.90
53208;DHT22;39093;52.788;6.940;2023-07-24T15:14:38;19.90;99.90
53208;DHT22;39093;52.788;6.940;2023-07-24T15:17:10;20.10;99.90
53208;DHT22;39093;52.788;6.940;2023-07-24T15:19:38;20.20;99.90
53208;DHT22;39093;52.788;6.940;2023-07-24T15:22:06;20.20;99.90
53208;DHT22;39093;52.788;6.940;2023-07-24T15:24:33;20.20;99.90
53208;DHT22;39093;52.788;6.940;2023-07-24T15:27:00;20.20;99.90
53208;DHT22;39093;52.788;6.940;2023-07-24T15:29:28;20.20;99.90
53208;DHT22;39093;52.788;6.940;2023-07-24T15:31:58;20.20;99.90
53208;DHT22;39093;52.788;6.940;2023-07-24T15:34:28;20.40;99.90
53208;DHT22;39093;52.788;6.940;2023-07-24T15:36:55;20.70;99.90